createdAt,value
2018-11-11T00:02:01.742Z,99.90
2018-11-11T00:04:43.395Z,99.90
2018-11-11T00:07:25.188Z,99.90
2018-11-11T00:10:06.993Z,99.90
2018-11-11T00:12:48.733Z,99.90
2018-11-11T00:15:29.635Z,99.90
2018-11-11T00:18:10.961Z,99.90
2018-11-11T00:20:52.652Z,99.90
2018-11-11T00:23:34.002Z,99.90
2018-11-11T00:26:16.132Z,99.90
2018-11-11T00:28:57.542Z,99.90
2018-11-11T00:31:39.082Z,99.90
2018-11-11T00:34:20.687Z,99.90
2018-11-11T00:37:02.467Z,99.90
2018-11-11T00:39:45.161Z,99.90
2018-11-11T00:42:27.200Z,99.90
2018-11-11T00:45:08.352Z,99.90
2018-11-11T00:47:49.753Z,99.90
2018-11-11T00:50:31.558Z,99.90
2018-11-11T00:53:13.663Z,99.90
2018-11-11T00:55:55.370Z,99.90
2018-11-11T00:58:37.114Z,99.90
2018-11-11T01:01:18.729Z,99.90
2018-11-11T01:04:01.529Z,99.90
2018-11-11T01:06:43.109Z,99.90
2018-11-11T01:09:25.022Z,99.90
2018-11-11T01:12:06.524Z,99.90
2018-11-11T01:14:48.387Z,99.90
2018-11-11T01:17:30.187Z,99.90
2018-11-11T01:20:13.025Z,99.90
2018-11-11T01:22:56.031Z,99.90
2018-11-11T01:25:37.403Z,99.90
2018-11-11T01:28:18.318Z,99.90
2018-11-11T01:31:00.775Z,99.90
2018-11-11T01:33:41.888Z,99.90
2018-11-11T01:36:23.688Z,99.90
2018-11-11T01:39:05.268Z,99.90
2018-11-11T01:41:46.321Z,99.90
2018-11-11T01:44:27.939Z,99.90
2018-11-11T01:47:10.038Z,99.90
2018-11-11T01:49:51.205Z,99.90
2018-11-11T01:52:32.877Z,99.90
2018-11-11T01:55:14.794Z,99.90
2018-11-11T01:57:56.170Z,99.90
2018-11-11T02:00:37.545Z,99.90
2018-11-11T02:03:18.530Z,99.90
2018-11-11T02:05:59.587Z,99.90
2018-11-11T02:08:41.189Z,99.90
2018-11-11T02:11:22.364Z,99.90
2018-11-11T02:14:03.718Z,99.90
2018-11-11T02:16:45.242Z,99.90
2018-11-11T02:19:26.943Z,99.90
2018-11-11T02:22:08.134Z,99.90
2018-11-11T02:24:49.810Z,99.90
2018-11-11T02:27:31.439Z,99.90
2018-11-11T02:30:14.322Z,99.90
2018-11-11T02:32:55.827Z,99.90
2018-11-11T02:35:37.184Z,99.90
2018-11-11T02:38:18.660Z,99.90
2018-11-11T02:40:59.737Z,99.90
2018-11-11T02:43:41.538Z,99.90
2018-11-11T02:46:22.525Z,99.90
2018-11-11T02:49:03.887Z,99.90
2018-11-11T02:51:45.188Z,99.90
2018-11-11T02:54:26.758Z,99.90
2018-11-11T02:57:08.648Z,99.90
2018-11-11T02:59:50.049Z,99.90
2018-11-11T03:02:31.142Z,99.60
2018-11-11T03:05:13.556Z,99.60
2018-11-11T03:07:55.334Z,99.30
2018-11-11T03:10:37.587Z,99.00
2018-11-11T03:13:18.635Z,98.70
2018-11-11T03:16:00.216Z,98.60
2018-11-11T03:18:41.774Z,98.40
2018-11-11T03:21:22.886Z,98.40
2018-11-11T03:24:04.254Z,98.50
2018-11-11T03:26:46.723Z,98.50
2018-11-11T03:29:28.358Z,98.50
2018-11-11T03:32:09.231Z,98.60
2018-11-11T03:34:50.078Z,98.80
2018-11-11T03:37:31.840Z,98.90
2018-11-11T03:40:14.997Z,99.10
2018-11-11T03:42:56.102Z,99.10
2018-11-11T03:45:37.559Z,99.30
2018-11-11T03:48:19.651Z,99.30
2018-11-11T03:51:01.882Z,99.50
2018-11-11T03:53:43.581Z,99.60
2018-11-11T03:56:25.142Z,99.50
2018-11-11T03:59:06.878Z,99.40
2018-11-11T04:01:49.445Z,99.30
2018-11-11T04:04:31.753Z,99.30
2018-11-11T04:07:12.892Z,99.30
2018-11-11T04:09:54.626Z,99.30
2018-11-11T04:12:36.651Z,99.30
2018-11-11T04:15:18.767Z,99.20
2018-11-11T04:18:00.314Z,99.10
2018-11-11T04:20:42.115Z,99.00
2018-11-11T04:23:23.190Z,99.10
2018-11-11T04:26:04.792Z,99.00
2018-11-11T04:28:46.491Z,99.00
2018-11-11T04:31:28.356Z,99.00
2018-11-11T04:34:10.151Z,99.00
2018-11-11T04:36:51.662Z,98.90
2018-11-11T04:39:32.431Z,99.00
2018-11-11T04:42:13.917Z,99.20
2018-11-11T04:44:55.069Z,99.40
2018-11-11T04:47:36.789Z,99.40
2018-11-11T04:50:19.374Z,99.60
2018-11-11T04:53:01.098Z,99.70
2018-11-11T04:55:42.859Z,99.90
2018-11-11T04:58:24.063Z,99.90
2018-11-11T05:01:05.030Z,99.90
2018-11-11T05:03:46.503Z,99.90
2018-11-11T05:06:27.782Z,99.90
2018-11-11T05:09:09.813Z,99.90
2018-11-11T05:11:51.301Z,99.90
2018-11-11T05:14:33.120Z,99.90
2018-11-11T05:17:14.924Z,99.90
2018-11-11T05:19:56.513Z,99.90
2018-11-11T05:22:38.775Z,99.90
2018-11-11T05:25:19.850Z,99.90
2018-11-11T05:28:01.618Z,99.90
2018-11-11T05:30:42.884Z,99.90
2018-11-11T05:33:23.899Z,99.90
2018-11-11T05:36:05.274Z,99.90
2018-11-11T05:38:46.170Z,99.90
2018-11-11T05:41:28.143Z,99.90
2018-11-11T05:44:10.638Z,99.90
2018-11-11T05:46:52.665Z,99.90
2018-11-11T05:49:33.818Z,99.90
2018-11-11T05:52:15.635Z,99.90
2018-11-11T05:54:57.711Z,99.90
2018-11-11T05:57:39.398Z,99.90
2018-11-11T06:00:21.480Z,99.90
2018-11-11T06:03:02.925Z,99.90
2018-11-11T06:05:44.780Z,99.90
2018-11-11T06:08:25.991Z,99.90
2018-11-11T06:11:07.444Z,99.90
2018-11-11T06:13:49.477Z,99.90
2018-11-11T06:16:31.848Z,99.90
2018-11-11T06:19:12.933Z,99.90
2018-11-11T06:21:54.683Z,99.90
2018-11-11T06:24:36.554Z,99.90
2018-11-11T06:27:18.445Z,99.90
2018-11-11T06:29:59.350Z,99.90
2018-11-11T06:32:41.178Z,99.90
2018-11-11T06:35:22.753Z,99.90
2018-11-11T06:38:05.589Z,99.90
2018-11-11T06:40:47.093Z,99.90
2018-11-11T06:43:28.864Z,99.90
2018-11-11T06:46:10.351Z,99.90
2018-11-11T06:48:51.856Z,99.90
2018-11-11T06:51:33.980Z,99.90
2018-11-11T06:54:15.732Z,99.90
2018-11-11T06:56:56.833Z,99.90
2018-11-11T06:59:38.512Z,99.90
2018-11-11T07:02:20.215Z,99.90
2018-11-11T07:05:02.018Z,99.90
2018-11-11T07:07:43.657Z,99.90
2018-11-11T07:10:27.030Z,99.90
2018-11-11T07:13:08.900Z,99.00
2018-11-11T07:15:50.720Z,97.30
2018-11-11T07:18:31.705Z,95.90
2018-11-11T07:21:13.802Z,93.80
2018-11-11T07:23:55.739Z,92.80
2018-11-11T07:26:37.149Z,92.20
2018-11-11T07:29:18.752Z,90.50
2018-11-11T07:32:00.531Z,88.00
2018-11-11T07:34:42.325Z,84.90
2018-11-11T07:37:24.128Z,84.10
2018-11-11T07:40:05.605Z,81.60
2018-11-11T07:42:47.750Z,80.60
2018-11-11T07:45:28.987Z,76.70
2018-11-11T07:48:11.526Z,77.00
2018-11-11T07:50:54.137Z,76.80
2018-11-11T07:53:36.244Z,76.30
2018-11-11T07:56:17.798Z,75.20
2018-11-11T07:58:59.389Z,73.50
2018-11-11T08:01:40.950Z,71.80
2018-11-11T08:04:22.591Z,69.60
2018-11-11T08:07:04.871Z,66.00
2018-11-11T08:09:46.053Z,66.10
2018-11-11T08:12:27.659Z,64.90
2018-11-11T08:15:09.161Z,61.60
2018-11-11T08:17:50.218Z,60.00
2018-11-11T08:20:32.200Z,58.10
2018-11-11T08:23:13.587Z,57.50
2018-11-11T08:25:55.934Z,56.40
2018-11-11T08:28:36.987Z,53.10
2018-11-11T08:31:18.406Z,50.50
2018-11-11T08:33:59.683Z,51.10
2018-11-11T08:36:41.527Z,52.00
2018-11-11T08:39:22.525Z,52.10
2018-11-11T08:42:03.891Z,51.30
2018-11-11T08:44:45.099Z,50.10
2018-11-11T08:47:26.995Z,48.80
2018-11-11T08:50:08.869Z,49.20
2018-11-11T08:52:50.349Z,48.50
2018-11-11T08:55:32.033Z,48.30
2018-11-11T08:58:14.698Z,48.00
2018-11-11T09:00:56.763Z,48.00
2018-11-11T09:03:38.099Z,48.20
2018-11-11T09:06:20.568Z,47.90
2018-11-11T09:09:02.334Z,47.10
2018-11-11T09:11:44.132Z,46.20
2018-11-11T09:14:25.515Z,44.80
2018-11-11T09:17:06.700Z,45.80
2018-11-11T09:19:47.664Z,44.80
2018-11-11T09:22:29.808Z,43.80
2018-11-11T09:25:11.267Z,44.20
2018-11-11T09:27:52.440Z,46.40
2018-11-11T09:30:33.408Z,47.40
2018-11-11T09:33:14.404Z,46.70
2018-11-11T09:35:56.299Z,46.30
2018-11-11T09:38:38.095Z,46.10
2018-11-11T09:41:19.556Z,45.10
2018-11-11T09:44:02.091Z,41.40
2018-11-11T09:46:43.286Z,41.70
2018-11-11T09:49:25.058Z,39.80
2018-11-11T09:52:06.968Z,41.00
2018-11-11T09:54:48.522Z,40.40
2018-11-11T09:57:31.180Z,37.70
2018-11-11T10:00:12.928Z,38.30
2018-11-11T10:02:59.455Z,37.50
2018-11-11T10:05:44.859Z,36.30
2018-11-11T10:08:31.671Z,34.70
2018-11-11T10:11:18.671Z,33.60
2018-11-11T10:14:07.621Z,33.80
2018-11-11T10:17:08.439Z,33.50
2018-11-11T10:19:53.961Z,35.10
2018-11-11T10:22:40.013Z,36.80
2018-11-11T10:25:28.806Z,35.50
2018-11-11T10:28:13.880Z,34.40
2018-11-11T10:31:00.359Z,36.90
2018-11-11T10:33:47.036Z,37.70
2018-11-11T10:36:32.682Z,38.50
2018-11-11T10:39:18.640Z,38.80
2018-11-11T10:42:34.140Z,44.30
2018-11-11T10:45:20.000Z,46.80
2018-11-11T10:48:03.991Z,47.70
2018-11-11T10:50:48.917Z,49.00
2018-11-11T10:53:30.438Z,51.20
2018-11-11T10:56:11.882Z,51.60
2018-11-11T10:58:53.590Z,52.50
2018-11-11T11:01:39.793Z,54.90
2018-11-11T11:04:21.462Z,57.00
2018-11-11T11:07:07.281Z,58.50
2018-11-11T11:09:49.267Z,58.70
2018-11-11T11:12:30.661Z,59.20
2018-11-11T11:15:11.836Z,61.00
2018-11-11T11:17:53.125Z,62.80
2018-11-11T11:20:34.799Z,63.90
2018-11-11T11:23:16.375Z,67.10
2018-11-11T11:25:57.987Z,69.80
2018-11-11T11:28:39.795Z,72.20
2018-11-11T11:31:21.385Z,74.00
2018-11-11T11:34:03.141Z,73.60
2018-11-11T11:36:45.514Z,74.10
2018-11-11T11:39:27.899Z,74.60
2018-11-11T11:42:09.714Z,75.70
2018-11-11T11:44:50.828Z,78.30
2018-11-11T11:47:32.248Z,79.50
2018-11-11T11:50:14.143Z,77.80
2018-11-11T11:52:55.658Z,74.40
2018-11-11T11:55:37.415Z,74.10
2018-11-11T11:58:25.440Z,74.40
2018-11-11T12:01:07.010Z,73.10
2018-11-11T12:03:48.806Z,72.50
2018-11-11T12:06:30.529Z,73.70
2018-11-11T12:09:12.081Z,69.50
2018-11-11T12:11:53.082Z,70.80
2018-11-11T12:14:34.857Z,70.20
2018-11-11T12:17:16.731Z,71.40
2018-11-11T12:19:58.984Z,72.00
2018-11-11T12:22:40.061Z,70.80
2018-11-11T12:25:21.847Z,67.50
2018-11-11T12:28:03.759Z,66.60
2018-11-11T12:30:46.143Z,65.20
2018-11-11T12:33:28.636Z,63.80
2018-11-11T12:36:09.717Z,64.70
2018-11-11T12:38:51.574Z,66.90
2018-11-11T12:41:32.990Z,69.70
2018-11-11T12:44:13.887Z,71.00
2018-11-11T12:46:56.287Z,72.80
2018-11-11T12:49:37.246Z,74.70
2018-11-11T12:52:18.385Z,78.80
2018-11-11T12:55:00.218Z,81.00
2018-11-11T12:57:42.199Z,82.40
2018-11-11T13:00:24.062Z,83.20
2018-11-11T13:03:05.546Z,84.00
2018-11-11T13:05:47.308Z,84.50
2018-11-11T13:08:29.011Z,85.30
2018-11-11T13:11:10.876Z,85.60
2018-11-11T13:13:53.362Z,85.00
2018-11-11T13:16:34.375Z,86.20
2018-11-11T13:19:17.200Z,89.20
2018-11-11T13:21:59.011Z,90.10
2018-11-11T13:24:40.654Z,90.60
2018-11-11T13:27:22.251Z,91.30
2018-11-11T13:30:03.868Z,91.80
2018-11-11T13:32:46.852Z,92.60
2018-11-11T13:35:28.271Z,93.60
2018-11-11T13:38:10.412Z,93.90
2018-11-11T13:40:51.241Z,94.20
2018-11-11T13:43:33.887Z,94.70
2018-11-11T13:46:15.742Z,95.30
2018-11-11T13:48:57.911Z,95.20
2018-11-11T13:51:39.141Z,93.40
2018-11-11T13:54:20.220Z,93.30
2018-11-11T13:57:03.147Z,94.30
2018-11-11T13:59:44.629Z,95.10
2018-11-11T14:02:27.629Z,96.00
2018-11-11T14:05:10.307Z,95.40
2018-11-11T14:07:51.935Z,91.70
2018-11-11T14:10:33.129Z,81.50
2018-11-11T14:13:14.797Z,78.20
2018-11-11T14:16:03.725Z,72.60
2018-11-11T14:18:45.596Z,68.20
2018-11-11T14:21:27.138Z,64.30
2018-11-11T14:24:10.445Z,61.60
2018-11-11T14:26:53.820Z,61.90
2018-11-11T14:29:35.261Z,67.40
2018-11-11T14:32:17.124Z,75.90
2018-11-11T14:34:58.889Z,80.20
2018-11-11T14:37:40.569Z,84.10
2018-11-11T14:40:25.249Z,89.40
2018-11-11T14:43:07.085Z,91.00
2018-11-11T14:45:49.739Z,92.20
2018-11-11T14:48:31.291Z,93.10
2018-11-11T14:51:13.407Z,94.80
2018-11-11T14:53:55.114Z,96.00
2018-11-11T14:56:41.357Z,97.30
2018-11-11T14:59:22.817Z,97.90
2018-11-11T15:02:04.130Z,98.90
2018-11-11T15:04:47.506Z,99.90
2018-11-11T15:07:29.318Z,99.90
2018-11-11T15:10:12.652Z,99.90
2018-11-11T15:12:54.329Z,99.90
2018-11-11T15:15:35.086Z,99.90
2018-11-11T15:18:18.017Z,99.90
2018-11-11T15:20:59.035Z,99.90
2018-11-11T15:23:40.880Z,99.90
2018-11-11T15:26:22.478Z,99.90
2018-11-11T15:29:04.125Z,99.90
2018-11-11T15:31:46.157Z,99.90
2018-11-11T15:34:27.602Z,99.90
2018-11-11T15:37:09.640Z,99.90
2018-11-11T15:39:52.876Z,99.90
2018-11-11T15:42:38.367Z,99.90
2018-11-11T15:45:21.658Z,99.90
2018-11-11T15:48:03.088Z,99.90
2018-11-11T15:50:45.605Z,99.90
2018-11-11T15:53:27.194Z,99.90
2018-11-11T15:56:09.365Z,99.90
2018-11-11T15:58:50.438Z,99.90
2018-11-11T16:01:32.549Z,99.90
2018-11-11T16:04:14.577Z,99.90
2018-11-11T16:06:57.925Z,99.90
2018-11-11T16:09:40.313Z,99.90
2018-11-11T16:12:21.247Z,99.90
2018-11-11T16:15:03.556Z,99.90
2018-11-11T16:17:45.906Z,99.90
2018-11-11T16:20:29.674Z,99.90
2018-11-11T16:23:11.840Z,99.90
2018-11-11T16:25:53.232Z,99.90
2018-11-11T16:28:35.373Z,99.90
2018-11-11T16:31:17.447Z,99.90
2018-11-11T16:33:59.698Z,99.90
2018-11-11T16:36:41.412Z,99.90
2018-11-11T16:39:22.774Z,99.90
2018-11-11T16:42:06.123Z,99.90
2018-11-11T16:44:47.816Z,99.90
2018-11-11T16:47:30.933Z,99.90
2018-11-11T16:50:13.135Z,99.90
2018-11-11T16:52:55.407Z,99.90
2018-11-11T16:55:38.162Z,99.90
2018-11-11T16:58:19.930Z,99.90
2018-11-11T17:01:01.624Z,99.90
2018-11-11T17:03:43.565Z,99.90
2018-11-11T17:06:25.696Z,99.90
2018-11-11T17:09:07.001Z,99.90
2018-11-11T17:11:49.442Z,99.90
2018-11-11T17:14:33.246Z,99.90
2018-11-11T17:17:14.869Z,99.90
2018-11-11T17:19:56.903Z,99.90
2018-11-11T17:22:39.337Z,99.90
2018-11-11T17:25:21.334Z,99.90
2018-11-11T17:31:10.150Z,99.90
2018-11-11T17:33:51.930Z,99.90
2018-11-11T17:36:33.841Z,99.90
2018-11-11T17:39:15.427Z,99.90
2018-11-11T17:41:56.924Z,99.90
2018-11-11T17:44:40.214Z,99.90
2018-11-11T17:47:21.703Z,99.90
2018-11-11T17:50:02.902Z,99.90
2018-11-11T17:52:44.317Z,99.90
2018-11-11T17:55:27.591Z,99.90
2018-11-11T17:58:09.314Z,99.90
2018-11-11T18:00:51.605Z,99.90
2018-11-11T18:03:33.586Z,99.90
2018-11-11T18:06:15.181Z,99.90
2018-11-11T18:08:57.894Z,99.90
2018-11-11T18:11:40.637Z,99.90
2018-11-11T18:14:22.759Z,99.90
2018-11-11T18:17:04.491Z,99.90
2018-11-11T18:19:45.632Z,99.90
2018-11-11T18:22:27.823Z,99.90
2018-11-11T18:25:10.471Z,99.90
2018-11-11T18:27:53.326Z,99.90
2018-11-11T18:30:36.130Z,99.90
2018-11-11T18:33:17.806Z,99.90
2018-11-11T18:36:01.481Z,99.90
2018-11-11T18:38:42.970Z,99.90
2018-11-11T18:41:24.782Z,99.90
2018-11-11T18:44:06.398Z,99.90
2018-11-11T18:46:47.992Z,99.90
2018-11-11T18:49:29.308Z,99.90
2018-11-11T18:52:10.379Z,99.90
2018-11-11T18:54:52.531Z,99.90
2018-11-11T18:57:33.928Z,99.90
2018-11-11T19:00:17.114Z,99.90
2018-11-11T19:02:58.475Z,99.90
2018-11-11T19:05:40.010Z,99.90
2018-11-11T19:08:21.569Z,99.90
2018-11-11T19:11:04.136Z,99.90
2018-11-11T19:13:45.955Z,99.90
2018-11-11T19:16:27.644Z,99.90
2018-11-11T19:19:10.011Z,99.90
2018-11-11T19:21:52.359Z,99.90
2018-11-11T19:24:33.666Z,99.90
2018-11-11T19:27:14.917Z,99.90
2018-11-11T19:29:56.223Z,99.90
2018-11-11T19:32:38.145Z,99.90
2018-11-11T19:35:20.174Z,99.90
2018-11-11T19:38:01.824Z,99.90
2018-11-11T19:40:43.385Z,99.90
2018-11-11T19:43:24.626Z,99.90
2018-11-11T19:53:05.563Z,99.90
2018-11-11T19:55:48.066Z,99.90
2018-11-11T19:58:29.322Z,99.90
2018-11-11T20:01:10.866Z,99.90
2018-11-11T20:03:54.271Z,99.90
2018-11-11T20:06:36.137Z,99.90
2018-11-11T20:09:17.506Z,99.90
2018-11-11T20:11:59.469Z,99.90
2018-11-11T20:14:41.222Z,99.90
2018-11-11T20:17:23.167Z,99.90
2018-11-11T20:20:05.058Z,99.90
2018-11-11T20:22:47.734Z,99.90
2018-11-11T20:25:29.838Z,99.90
2018-11-11T20:28:12.552Z,99.90
2018-11-11T20:30:54.540Z,99.90
2018-11-11T20:33:35.923Z,99.90
2018-11-11T20:36:17.595Z,99.90
2018-11-11T20:38:58.851Z,99.90
2018-11-11T20:41:41.034Z,99.90
2018-11-11T20:44:22.214Z,99.90
2018-11-11T20:47:03.801Z,99.90
2018-11-11T20:49:45.601Z,99.90
2018-11-11T20:52:27.190Z,99.90
2018-11-11T20:55:08.688Z,99.90
2018-11-11T20:57:51.169Z,99.90
2018-11-11T21:00:39.396Z,99.90
2018-11-11T21:03:21.661Z,99.90
2018-11-11T21:06:03.368Z,99.90
2018-11-11T21:08:45.651Z,99.90
2018-11-11T21:11:28.244Z,99.90
2018-11-11T21:14:09.642Z,99.90
2018-11-11T21:16:51.391Z,99.90
2018-11-11T21:19:32.535Z,99.90
2018-11-11T21:22:15.452Z,99.90
2018-11-11T21:24:57.846Z,99.90
2018-11-11T21:27:40.434Z,99.90
2018-11-11T21:30:24.998Z,99.90
2018-11-11T21:33:06.102Z,99.90
2018-11-11T21:35:48.375Z,99.90
2018-11-11T21:38:30.254Z,99.90
2018-11-11T21:41:12.895Z,99.90
2018-11-11T21:43:58.401Z,99.90
2018-11-11T21:46:42.676Z,99.90
2018-11-11T21:49:24.752Z,99.90
2018-11-11T21:52:07.529Z,99.90
2018-11-11T21:54:49.763Z,99.90
2018-11-11T21:57:32.338Z,99.90
2018-11-11T22:00:15.608Z,99.90
2018-11-11T22:02:58.862Z,99.90
2018-11-11T22:05:40.857Z,99.90
2018-11-11T22:08:24.739Z,99.90
2018-11-11T22:11:06.941Z,99.90
2018-11-11T22:13:48.913Z,99.90
2018-11-11T22:16:31.286Z,99.90
2018-11-11T22:19:12.630Z,99.90
2018-11-11T22:21:55.181Z,99.90
2018-11-11T22:24:37.968Z,99.90
2018-11-11T22:27:20.345Z,99.90
2018-11-11T22:30:01.512Z,99.90
2018-11-11T22:32:43.409Z,99.90
2018-11-11T22:35:25.032Z,99.90
2018-11-11T22:38:06.955Z,99.90
2018-11-11T22:40:49.146Z,99.90
2018-11-11T22:43:30.970Z,99.90
2018-11-11T22:46:13.840Z,99.90
2018-11-11T22:48:56.179Z,99.90
2018-11-11T22:51:37.913Z,99.90
2018-11-11T22:54:19.856Z,99.90
2018-11-11T22:57:01.931Z,99.90
2018-11-11T22:59:43.898Z,99.90
2018-11-11T23:02:25.582Z,99.90
2018-11-11T23:05:07.090Z,99.90
2018-11-11T23:07:49.168Z,99.90
2018-11-11T23:10:31.410Z,99.90
2018-11-11T23:13:13.259Z,99.90
2018-11-11T23:15:56.345Z,99.90
2018-11-11T23:18:39.399Z,99.90
2018-11-11T23:21:21.693Z,99.90
2018-11-11T23:24:03.650Z,99.90
2018-11-11T23:26:45.650Z,99.90
2018-11-11T23:29:26.972Z,99.90
2018-11-11T23:32:08.624Z,99.90
2018-11-11T23:34:50.006Z,99.90
2018-11-11T23:37:31.985Z,99.90
2018-11-11T23:40:14.633Z,99.90
2018-11-11T23:42:58.146Z,99.90
2018-11-11T23:45:39.994Z,99.90
2018-11-11T23:48:21.663Z,99.90
2018-11-11T23:51:03.469Z,99.90
2018-11-11T23:53:44.944Z,99.90
2018-11-11T23:56:26.022Z,99.90
2018-11-11T23:59:07.593Z,99.90
